Fairfax, Virginia
Current Conditions -  °F | °C
As of 4:52 PM on Thursday 27 Nov 2014 (Local Time) from KIAD Reporting Station
Broken Clouds Broken Clouds  
Wind Chill: 32°   Ceiling: 5500
Heat Index: 37°   Visibility: 10mi
Dew Point: 29°   Wind: 6mph
Humidity: 73%   Direction: 280°W
Pressure: 30.09"   Gusts: 17mph
Location:  38.84°N, 77.31°W
Report Text: KIAD 272152Z 28005G15KT 10SM FEW040 BKN055 03/M02 A3009 RMK AO2 RAB04E23 SLP193 P0000 T00281017 $
Loading
Personal Weather Stations






























Interactive Weather Map New forecast layout! Learn more

10-Day Weather Forecast

Advertisements
Track Severe Weather on mobile